createdAt,value
2022-08-28T00:00:55.835Z,17.68
2022-08-28T00:01:55.856Z,17.79
2022-08-28T00:02:55.909Z,17.78
2022-08-28T00:03:55.914Z,17.72
2022-08-28T00:04:55.978Z,17.75
2022-08-28T00:05:55.967Z,17.74
2022-08-28T00:06:55.997Z,17.68
2022-08-28T00:07:56.017Z,17.56
2022-08-28T00:08:56.039Z,17.66
2022-08-28T00:09:56.072Z,17.58
2022-08-28T00:10:56.097Z,17.59
2022-08-28T00:11:56.121Z,17.41
2022-08-28T00:12:56.145Z,17.51
2022-08-28T00:13:56.794Z,17.52
2022-08-28T00:14:56.206Z,17.40
2022-08-28T00:15:56.329Z,17.48
2022-08-28T00:16:56.290Z,17.51
2022-08-28T00:17:56.280Z,17.43
2022-08-28T00:18:56.305Z,17.51
2022-08-28T00:19:56.335Z,17.44
2022-08-28T00:20:56.361Z,17.38
2022-08-28T00:21:56.388Z,17.31
2022-08-28T00:22:56.409Z,17.33
2022-08-28T00:23:56.439Z,17.33
2022-08-28T00:24:56.466Z,17.36
2022-08-28T00:25:56.492Z,17.33
2022-08-28T00:26:56.519Z,17.31
2022-08-28T00:27:56.545Z,17.31
2022-08-28T00:28:56.569Z,17.23
2022-08-28T00:29:56.595Z,17.26
2022-08-28T00:30:56.682Z,17.22
2022-08-28T00:31:56.649Z,17.23
2022-08-28T00:32:56.678Z,17.23
2022-08-28T00:33:56.702Z,17.22
2022-08-28T00:34:56.729Z,17.22
2022-08-28T00:35:56.756Z,17.22
2022-08-28T00:36:56.780Z,17.22
2022-08-28T00:37:56.808Z,17.28
2022-08-28T00:38:56.839Z,17.23
2022-08-28T00:39:56.893Z,17.22
2022-08-28T00:40:56.885Z,17.15
2022-08-28T00:41:58.020Z,17.12
2022-08-28T00:42:56.937Z,17.16
2022-08-28T00:43:56.966Z,17.15
2022-08-28T00:44:56.996Z,17.14
2022-08-28T00:45:57.015Z,17.12
2022-08-28T00:46:57.106Z,17.21
2022-08-28T00:47:57.097Z,17.19
2022-08-28T00:48:57.097Z,17.16
2022-08-28T00:49:57.125Z,17.18
2022-08-28T00:51:00.399Z,17.16
2022-08-28T00:51:57.181Z,17.16
2022-08-28T00:52:57.204Z,17.19
2022-08-28T00:53:59.032Z,17.16
2022-08-28T00:54:59.346Z,17.19
2022-08-28T00:55:57.281Z,17.18
2022-08-28T00:56:57.306Z,17.18
2022-08-28T00:57:57.333Z,17.15
2022-08-28T00:58:57.365Z,17.16
2022-08-28T00:59:57.389Z,17.16
2022-08-28T01:00:57.427Z,17.11
2022-08-28T01:01:57.470Z,17.18
2022-08-28T01:02:57.518Z,17.16
2022-08-28T01:03:57.494Z,17.11
2022-08-28T01:04:57.523Z,17.14
2022-08-28T01:05:57.568Z,17.15
2022-08-28T01:06:57.569Z,17.14
2022-08-28T01:07:57.598Z,17.18
2022-08-28T01:08:57.626Z,17.11
2022-08-28T01:09:57.649Z,17.08
2022-08-28T01:10:57.680Z,17.08
2022-08-28T01:11:57.707Z,17.04
2022-08-28T01:12:57.739Z,17.00
2022-08-28T01:13:57.759Z,17.01
2022-08-28T01:14:57.784Z,17.07
2022-08-28T01:15:57.911Z,17.00
2022-08-28T01:16:57.839Z,17.00
2022-08-28T01:17:57.863Z,17.00
2022-08-28T01:18:57.890Z,17.01
2022-08-28T01:19:57.916Z,17.06
2022-08-28T01:20:57.945Z,17.07
2022-08-28T01:21:57.969Z,17.12
2022-08-28T01:22:57.990Z,17.12
2022-08-28T01:23:58.022Z,17.16
2022-08-28T01:24:58.049Z,17.18
2022-08-28T01:25:58.075Z,17.16
2022-08-28T01:26:58.100Z,17.22
2022-08-28T01:27:58.125Z,17.15
2022-08-28T01:28:58.153Z,17.16
2022-08-28T01:29:58.178Z,17.19
2022-08-28T01:30:58.309Z,17.16
2022-08-28T01:31:58.232Z,17.19
2022-08-28T01:32:58.259Z,17.16
2022-08-28T01:33:58.284Z,17.19
2022-08-28T01:34:58.312Z,17.22
2022-08-28T01:35:58.337Z,17.12
2022-08-28T01:36:58.507Z,17.14
2022-08-28T01:37:58.391Z,17.12
2022-08-28T01:38:58.418Z,17.14
2022-08-28T01:39:58.493Z,17.08
2022-08-28T01:40:58.471Z,17.12
2022-08-28T01:41:58.498Z,17.11
2022-08-28T01:42:58.524Z,17.04
2022-08-28T01:43:58.546Z,17.00
2022-08-28T01:44:58.576Z,16.96
2022-08-28T01:45:58.640Z,16.97
2022-08-28T01:46:58.625Z,16.94
2022-08-28T01:47:58.678Z,16.96
2022-08-28T01:48:58.678Z,16.85
2022-08-28T01:49:58.704Z,16.93
2022-08-28T01:50:58.729Z,16.83
2022-08-28T01:51:58.767Z,16.78
2022-08-28T01:52:58.784Z,16.79
2022-08-28T01:53:58.816Z,16.85
2022-08-28T01:54:58.835Z,16.79
2022-08-28T01:55:58.864Z,16.79
2022-08-28T01:56:58.885Z,16.78
2022-08-28T01:57:58.916Z,16.79
2022-08-28T01:58:58.939Z,16.78
2022-08-28T01:59:58.969Z,16.78
2022-08-28T02:00:58.993Z,16.78
2022-08-28T02:01:59.101Z,16.73
2022-08-28T02:02:59.046Z,16.64
2022-08-28T02:03:59.109Z,16.64
2022-08-28T02:04:59.093Z,16.66
2022-08-28T02:05:59.124Z,16.60
2022-08-28T02:06:59.143Z,16.64
2022-08-28T02:07:59.171Z,16.64
2022-08-28T02:08:59.197Z,16.70
2022-08-28T02:09:59.227Z,16.64
2022-08-28T02:10:59.252Z,16.64
2022-08-28T02:11:59.278Z,16.58
2022-08-28T02:12:59.427Z,16.49
2022-08-28T02:13:59.327Z,16.50
2022-08-28T02:14:59.354Z,16.56
2022-08-28T02:15:59.428Z,16.52
2022-08-28T02:16:59.403Z,16.48
2022-08-28T02:17:59.432Z,16.48
2022-08-28T02:18:59.455Z,16.48
2022-08-28T02:19:59.489Z,16.49
2022-08-28T02:20:59.511Z,16.42
2022-08-28T02:21:59.535Z,16.46
2022-08-28T02:22:59.564Z,16.39
2022-08-28T02:23:59.589Z,16.43
2022-08-28T02:24:59.614Z,16.43
2022-08-28T02:25:59.642Z,16.34
2022-08-28T02:26:59.665Z,16.39
2022-08-28T02:27:59.692Z,16.49
2022-08-28T02:28:59.732Z,16.45
2022-08-28T02:29:59.748Z,16.42
2022-08-28T02:30:59.842Z,16.46
2022-08-28T02:31:59.795Z,16.41
2022-08-28T02:32:59.820Z,16.43
2022-08-28T02:33:59.850Z,16.39
2022-08-28T02:34:59.872Z,16.48
2022-08-28T02:35:59.899Z,16.41
2022-08-28T02:36:59.927Z,16.39
2022-08-28T02:38:00.454Z,16.49
2022-08-28T02:38:59.973Z,16.46
2022-08-28T02:40:00.063Z,16.45
2022-08-28T02:41:00.027Z,16.43
2022-08-28T02:42:00.054Z,16.43
2022-08-28T02:43:00.081Z,16.48
2022-08-28T02:44:00.102Z,16.46
2022-08-28T02:45:00.130Z,16.45
2022-08-28T02:46:00.247Z,16.46
2022-08-28T02:47:00.185Z,16.48
2022-08-28T02:48:00.209Z,16.56
2022-08-28T02:49:00.231Z,16.53
2022-08-28T02:50:00.277Z,16.46
2022-08-28T02:51:00.281Z,16.45
2022-08-28T02:52:00.320Z,16.50
2022-08-28T02:53:00.344Z,16.41
2022-08-28T02:54:00.362Z,16.45
2022-08-28T02:55:00.387Z,16.39
2022-08-28T02:56:00.419Z,16.46
2022-08-28T02:57:00.436Z,16.38
2022-08-28T02:58:00.470Z,16.42
2022-08-28T02:59:00.493Z,16.46
2022-08-28T03:00:00.522Z,16.52
2022-08-28T03:01:00.558Z,16.48
2022-08-28T03:02:00.570Z,16.60
2022-08-28T03:03:00.643Z,16.50
2022-08-28T03:04:00.622Z,16.49
2022-08-28T03:05:00.640Z,16.50
2022-08-28T03:06:00.668Z,16.53
2022-08-28T03:07:00.698Z,16.60
2022-08-28T03:08:00.724Z,16.57
2022-08-28T03:09:00.747Z,16.50
2022-08-28T03:10:00.787Z,16.50
2022-08-28T03:11:00.800Z,16.45
2022-08-28T03:12:00.824Z,16.46
2022-08-28T03:13:00.849Z,16.45
2022-08-28T03:14:00.877Z,16.41
2022-08-28T03:15:00.904Z,16.43
2022-08-28T03:16:00.931Z,16.38
2022-08-28T03:17:01.004Z,16.35
2022-08-28T03:18:00.981Z,16.39
2022-08-28T03:19:01.008Z,16.39
2022-08-28T03:20:01.033Z,16.38
2022-08-28T03:21:01.059Z,16.45
2022-08-28T03:22:01.086Z,16.39
2022-08-28T03:23:01.108Z,16.38
2022-08-28T03:24:01.133Z,16.31
2022-08-28T03:25:01.156Z,16.41
2022-08-28T03:26:01.185Z,16.42
2022-08-28T03:27:01.212Z,16.43
2022-08-28T03:28:01.237Z,16.42
2022-08-28T03:29:01.263Z,16.46
2022-08-28T03:30:01.287Z,16.42
2022-08-28T03:31:01.353Z,16.39
2022-08-28T03:32:01.344Z,16.38
2022-08-28T03:33:01.365Z,16.52
2022-08-28T03:34:01.398Z,16.42
2022-08-28T03:35:01.420Z,16.46
2022-08-28T03:36:01.443Z,16.50
2022-08-28T03:37:01.483Z,16.50
2022-08-28T03:38:01.517Z,16.48
2022-08-28T03:39:01.523Z,16.56
2022-08-28T03:40:01.565Z,16.50
2022-08-28T03:41:01.583Z,16.48
2022-08-28T03:42:01.599Z,16.49
2022-08-28T03:43:01.629Z,16.49
2022-08-28T03:44:01.649Z,16.49
2022-08-28T03:45:01.674Z,16.53
2022-08-28T03:46:01.728Z,16.42
2022-08-28T03:47:01.730Z,16.50
2022-08-28T03:48:01.768Z,16.43
2022-08-28T03:49:01.782Z,16.49
2022-08-28T03:50:01.806Z,16.48
2022-08-28T03:51:01.834Z,16.46
2022-08-28T03:52:01.862Z,16.48
2022-08-28T03:53:01.890Z,16.46
2022-08-28T03:54:01.909Z,16.50
2022-08-28T03:55:01.937Z,16.52
2022-08-28T03:56:01.978Z,16.49
2022-08-28T03:57:01.990Z,16.43
2022-08-28T03:58:02.014Z,16.46
2022-08-28T03:59:02.041Z,16.45
2022-08-28T04:00:02.085Z,16.35
2022-08-28T04:01:02.155Z,16.35
2022-08-28T04:02:02.120Z,16.20
2022-08-28T04:03:02.194Z,16.31
2022-08-28T04:04:02.186Z,16.21
2022-08-28T04:05:02.196Z,16.20
2022-08-28T04:06:02.223Z,16.21
2022-08-28T04:07:02.251Z,16.14
2022-08-28T04:08:02.273Z,16.09
2022-08-28T04:09:02.297Z,16.07
2022-08-28T04:10:02.327Z,16.04
2022-08-28T04:11:02.373Z,16.00
2022-08-28T04:12:02.375Z,15.97
2022-08-28T04:13:02.401Z,15.92
2022-08-28T04:14:02.429Z,15.89
2022-08-28T04:15:02.458Z,15.84
2022-08-28T04:16:02.482Z,15.72
2022-08-28T04:17:02.538Z,15.83
2022-08-28T04:18:02.561Z,15.78
2022-08-28T04:19:02.558Z,15.86
2022-08-28T04:20:02.582Z,15.78
2022-08-28T04:21:02.608Z,15.74
2022-08-28T04:22:02.687Z,15.71
2022-08-28T04:23:02.659Z,15.57
2022-08-28T04:24:04.920Z,15.57
2022-08-28T04:25:02.708Z,15.57
2022-08-28T04:26:02.738Z,15.59
2022-08-28T04:27:02.761Z,15.57
2022-08-28T04:28:02.831Z,15.51
2022-08-28T04:29:02.811Z,15.62
2022-08-28T04:30:02.843Z,15.59
2022-08-28T04:31:02.865Z,15.47
2022-08-28T04:32:03.069Z,15.46
2022-08-28T04:33:02.911Z,15.38
2022-08-28T04:34:02.938Z,15.47
2022-08-28T04:35:02.978Z,15.44
2022-08-28T04:36:02.990Z,15.43
2022-08-28T04:37:03.015Z,15.46
2022-08-28T04:38:12.576Z,15.35
2022-08-28T04:39:03.065Z,15.34
2022-08-28T04:40:03.156Z,15.43
2022-08-28T04:41:03.112Z,15.38
2022-08-28T04:42:03.140Z,15.46
2022-08-28T04:43:03.167Z,15.50
2022-08-28T04:44:03.196Z,15.46
2022-08-28T04:45:03.217Z,15.47
2022-08-28T04:46:03.319Z,15.43
2022-08-28T04:47:03.268Z,15.43
2022-08-28T04:48:03.371Z,15.49
2022-08-28T04:49:03.320Z,15.41
2022-08-28T04:50:03.349Z,15.47
2022-08-28T04:51:03.371Z,15.47
2022-08-28T04:52:03.393Z,15.54
2022-08-28T04:53:03.418Z,15.59
2022-08-28T04:54:03.445Z,15.50
2022-08-28T04:55:03.482Z,15.64
2022-08-28T04:56:03.498Z,15.59
2022-08-28T04:57:06.404Z,15.62
2022-08-28T04:58:03.545Z,15.60
2022-08-28T04:59:03.576Z,15.60
2022-08-28T05:00:03.607Z,15.59
2022-08-28T05:01:03.682Z,15.59
2022-08-28T05:02:03.680Z,15.62
2022-08-28T05:03:03.673Z,15.59
2022-08-28T05:04:03.743Z,15.62
2022-08-28T05:05:03.725Z,15.54
2022-08-28T05:06:03.746Z,15.51
2022-08-28T05:07:03.774Z,15.47
2022-08-28T05:08:03.800Z,15.47
2022-08-28T05:09:03.820Z,15.56
2022-08-28T05:10:03.847Z,15.53
2022-08-28T05:11:03.890Z,15.56
2022-08-28T05:12:03.900Z,15.62
2022-08-28T05:13:03.925Z,15.62
2022-08-28T05:14:03.951Z,15.62
2022-08-28T05:15:03.976Z,15.60
2022-08-28T05:16:04.053Z,15.65
2022-08-28T05:17:04.030Z,15.62
2022-08-28T05:18:04.053Z,15.72
2022-08-28T05:19:04.079Z,15.68
2022-08-28T05:20:04.101Z,15.72
2022-08-28T05:21:04.137Z,15.67
2022-08-28T05:22:04.154Z,15.74
2022-08-28T05:23:04.177Z,15.84
2022-08-28T05:24:04.201Z,15.86
2022-08-28T05:25:04.227Z,15.82
2022-08-28T05:26:04.254Z,15.75
2022-08-28T05:27:04.278Z,15.84
2022-08-28T05:28:04.305Z,15.93
2022-08-28T05:29:04.328Z,15.84
2022-08-28T05:30:04.355Z,15.84
2022-08-28T05:31:04.383Z,15.93
2022-08-28T05:32:04.406Z,16.01
2022-08-28T05:33:04.435Z,16.00
2022-08-28T05:34:04.470Z,15.97
2022-08-28T05:35:04.481Z,15.94
2022-08-28T05:36:04.529Z,16.00
2022-08-28T05:37:04.534Z,15.97
2022-08-28T05:38:04.562Z,16.00
2022-08-28T05:39:04.586Z,15.97
2022-08-28T05:40:04.707Z,16.11
2022-08-28T05:41:04.638Z,16.07
2022-08-28T05:42:04.664Z,16.14
2022-08-28T05:43:04.685Z,16.14
2022-08-28T05:44:04.717Z,16.09
2022-08-28T05:45:04.744Z,16.21
2022-08-28T05:46:04.830Z,16.15
2022-08-28T05:47:04.789Z,16.21
2022-08-28T05:48:04.818Z,16.20
2022-08-28T05:49:09.125Z,16.20
2022-08-28T05:50:04.868Z,16.12
2022-08-28T05:51:04.896Z,16.17
2022-08-28T05:52:04.919Z,16.12
2022-08-28T05:53:04.967Z,16.17
2022-08-28T05:54:04.972Z,16.20
2022-08-28T05:55:04.998Z,16.20
2022-08-28T05:56:05.027Z,16.17
2022-08-28T05:57:05.051Z,16.17
2022-08-28T05:58:05.079Z,16.24
2022-08-28T05:59:05.102Z,16.35
2022-08-28T06:00:05.140Z,16.38
2022-08-28T06:01:05.156Z,16.43
2022-08-28T06:02:05.200Z,16.42
2022-08-28T06:03:05.225Z,16.46
2022-08-28T06:04:05.332Z,16.45
2022-08-28T06:05:05.255Z,16.43
2022-08-28T06:06:05.288Z,16.49
2022-08-28T06:07:05.308Z,16.50
2022-08-28T06:08:05.335Z,16.53
2022-08-28T06:09:05.361Z,16.60
2022-08-28T06:10:05.387Z,16.60
2022-08-28T06:11:05.410Z,16.66
2022-08-28T06:12:05.440Z,16.64
2022-08-28T06:13:05.464Z,16.58
2022-08-28T06:14:05.491Z,16.67
2022-08-28T06:15:05.514Z,16.73
2022-08-28T06:16:05.576Z,16.82
2022-08-28T06:17:05.570Z,16.76
2022-08-28T06:18:05.599Z,16.75
2022-08-28T06:19:05.624Z,16.70
2022-08-28T06:20:05.649Z,16.85
2022-08-28T06:21:05.673Z,17.06
2022-08-28T06:22:07.014Z,17.11
2022-08-28T06:23:05.727Z,17.11
2022-08-28T06:24:05.754Z,17.18
2022-08-28T06:25:08.020Z,17.22
2022-08-28T06:26:05.807Z,17.25
2022-08-28T06:27:05.837Z,17.08
2022-08-28T06:28:05.898Z,17.15
2022-08-28T06:29:05.883Z,17.12
2022-08-28T06:30:05.919Z,17.03
2022-08-28T06:31:24.519Z,17.03
2022-08-28T06:32:06.011Z,17.08
2022-08-28T06:33:05.991Z,17.19
2022-08-28T06:34:07.518Z,17.48
2022-08-28T06:35:06.046Z,17.52
2022-08-28T06:36:06.078Z,17.59
2022-08-28T06:37:06.099Z,17.68
2022-08-28T06:38:06.144Z,17.75
2022-08-28T06:39:06.152Z,17.81
2022-08-28T06:40:06.236Z,17.82
2022-08-28T06:41:06.209Z,18.08
2022-08-28T06:42:06.250Z,18.32
2022-08-28T06:43:06.261Z,18.52
2022-08-28T06:44:06.291Z,18.82
2022-08-28T06:45:06.318Z,18.95
2022-08-28T06:46:06.390Z,19.06
2022-08-28T06:47:06.374Z,19.06
2022-08-28T06:48:06.399Z,19.13
2022-08-28T06:49:06.429Z,18.99
2022-08-28T06:50:06.451Z,18.99
2022-08-28T06:51:06.481Z,18.88
2022-08-28T06:52:06.509Z,18.82
2022-08-28T06:53:06.538Z,18.88
2022-08-28T06:54:06.570Z,18.85
2022-08-28T06:55:06.596Z,18.91
2022-08-28T06:56:06.625Z,18.92
2022-08-28T06:57:06.653Z,18.91
2022-08-28T06:58:06.697Z,18.90
2022-08-28T06:59:06.706Z,18.75
2022-08-28T07:00:06.734Z,18.65
2022-08-28T07:01:06.781Z,18.66
2022-08-28T07:02:06.909Z,18.60
2022-08-28T07:03:06.818Z,18.51
2022-08-28T07:04:06.852Z,18.52
2022-08-28T07:05:06.872Z,18.48
2022-08-28T07:06:06.898Z,18.50
2022-08-28T07:07:06.926Z,18.45
2022-08-28T07:08:06.958Z,18.41
2022-08-28T07:09:06.981Z,18.44
2022-08-28T07:10:07.009Z,18.35
2022-08-28T07:11:07.038Z,18.32
2022-08-28T07:12:07.065Z,18.30
2022-08-28T07:13:07.094Z,18.29
2022-08-28T07:14:07.124Z,18.30
2022-08-28T07:15:07.172Z,18.25
2022-08-28T07:16:07.255Z,18.26
2022-08-28T07:17:07.198Z,18.18
2022-08-28T07:18:07.231Z,18.26
2022-08-28T07:19:07.255Z,18.36
2022-08-28T07:20:07.280Z,18.39
2022-08-28T07:21:12.082Z,18.36
2022-08-28T07:23:50.540Z,18.45
2022-08-28T07:24:50.098Z,18.51
2022-08-28T07:26:54.128Z,18.66
2022-08-28T07:27:54.147Z,18.76
2022-08-28T07:29:59.138Z,18.82
2022-08-28T07:30:58.739Z,18.88
2022-08-28T07:31:58.704Z,18.95
2022-08-28T07:32:58.739Z,19.00
2022-08-28T07:33:58.761Z,19.02
2022-08-28T07:34:58.793Z,19.11
2022-08-28T07:35:58.815Z,19.13
2022-08-28T07:36:58.841Z,19.19
2022-08-28T07:37:58.869Z,19.22
2022-08-28T07:38:58.922Z,19.28
2022-08-28T07:39:58.961Z,19.36
2022-08-28T07:40:58.953Z,19.37
2022-08-28T07:41:58.979Z,19.48
2022-08-28T07:42:59.007Z,19.58
2022-08-28T07:43:59.040Z,19.59
2022-08-28T07:44:59.064Z,19.63
2022-08-28T07:45:59.126Z,19.68
2022-08-28T07:46:59.129Z,19.69
2022-08-28T07:47:59.147Z,19.74
2022-08-28T07:48:59.171Z,19.68
2022-08-28T07:49:59.202Z,19.87
2022-08-28T07:50:59.229Z,19.84
2022-08-28T07:51:59.255Z,19.94
2022-08-28T07:52:59.283Z,19.94
2022-08-28T07:53:59.309Z,19.94
2022-08-28T07:54:59.359Z,19.98
2022-08-28T07:55:59.367Z,19.94
2022-08-28T07:56:59.396Z,19.84
2022-08-28T07:57:59.426Z,19.98
2022-08-28T07:58:59.461Z,19.95
2022-08-28T07:59:59.477Z,20.05
2022-08-28T08:00:59.507Z,20.16
2022-08-28T08:01:59.535Z,20.01
2022-08-28T08:02:59.738Z,20.08
2022-08-28T08:04:01.848Z,20.13
2022-08-28T08:04:59.616Z,20.11
2022-08-28T08:05:59.643Z,20.20
2022-08-28T08:06:59.674Z,20.31
2022-08-28T08:07:59.701Z,20.50
2022-08-28T08:08:59.727Z,20.59
2022-08-28T08:09:59.761Z,20.74
2022-08-28T08:10:59.784Z,20.84
2022-08-28T08:11:59.815Z,20.98
2022-08-28T08:12:59.844Z,21.06
2022-08-28T08:13:59.877Z,21.14
2022-08-28T08:15:07.072Z,21.24
2022-08-28T08:17:04.398Z,21.10
2022-08-28T08:18:03.942Z,21.09
2022-08-28T08:20:07.968Z,20.99
2022-08-28T08:21:07.989Z,20.91
2022-08-28T08:23:12.488Z,20.94
2022-08-28T08:24:12.031Z,20.92
2022-08-28T08:26:16.055Z,20.73
2022-08-28T08:27:16.078Z,20.72
2022-08-28T08:29:20.579Z,20.72
2022-08-28T08:30:20.119Z,20.76
2022-08-28T08:32:24.152Z,20.85
2022-08-28T08:33:24.170Z,20.85
2022-08-28T08:35:28.673Z,20.73
2022-08-28T08:36:28.218Z,20.58
2022-08-28T08:38:32.245Z,20.43
2022-08-28T08:39:32.437Z,20.50
2022-08-28T08:41:36.769Z,20.17
2022-08-28T08:42:36.314Z,20.16
2022-08-28T08:44:40.840Z,20.26
2022-08-28T08:45:40.551Z,20.39
2022-08-28T08:47:34.032Z,20.61
2022-08-28T08:48:33.716Z,20.82
2022-08-28T08:50:26.660Z,21.03
2022-08-28T08:51:26.684Z,21.16
2022-08-28T08:53:31.186Z,21.19
2022-08-28T08:54:30.733Z,21.24
2022-08-28T08:56:35.359Z,21.12
2022-08-28T08:57:34.790Z,20.98
2022-08-28T08:59:39.293Z,20.91
2022-08-28T09:00:38.835Z,20.91
2022-08-28T09:02:42.877Z,21.14
2022-08-28T09:03:44.042Z,21.19
2022-08-28T09:05:36.869Z,21.31
2022-08-28T09:06:36.053Z,21.46
2022-08-28T09:08:40.095Z,21.54
2022-08-28T09:09:40.106Z,21.64
2022-08-28T09:11:44.607Z,21.53
2022-08-28T09:12:44.153Z,21.49
2022-08-28T09:14:48.671Z,21.32
2022-08-28T09:15:50.733Z,21.19
2022-08-28T09:16:48.724Z,21.27
2022-08-28T09:17:48.747Z,21.03
2022-08-28T09:18:48.778Z,21.01
2022-08-28T09:19:48.811Z,21.06
2022-08-28T09:20:48.843Z,21.04
2022-08-28T09:21:48.873Z,21.14
2022-08-28T09:22:48.900Z,21.17
2022-08-28T09:23:48.929Z,21.22
2022-08-28T09:24:48.964Z,21.31
2022-08-28T09:25:48.986Z,21.38
2022-08-28T09:26:49.015Z,21.59
2022-08-28T09:27:49.048Z,21.54
2022-08-28T09:28:49.074Z,21.67
2022-08-28T09:29:49.104Z,21.90
2022-08-28T09:30:49.161Z,21.88
2022-08-28T09:31:49.166Z,21.91
2022-08-28T09:32:49.193Z,21.84
2022-08-28T09:33:49.220Z,21.94
2022-08-28T09:34:49.253Z,21.98
2022-08-28T09:35:49.281Z,21.91
2022-08-28T09:36:49.311Z,21.84
2022-08-28T09:37:49.341Z,21.84
2022-08-28T09:38:49.384Z,21.83
2022-08-28T09:39:49.395Z,21.64
2022-08-28T09:40:49.428Z,21.65
2022-08-28T09:41:49.459Z,21.64
2022-08-28T09:42:49.492Z,21.67
2022-08-28T09:43:49.518Z,21.71
2022-08-28T09:44:51.372Z,21.77
2022-08-28T09:45:49.598Z,21.75
2022-08-28T09:46:49.681Z,21.79
2022-08-28T09:47:49.645Z,21.77
2022-08-28T09:48:49.664Z,21.79
2022-08-28T09:49:49.708Z,21.79
2022-08-28T09:50:49.721Z,21.82
2022-08-28T09:51:49.752Z,21.75
2022-08-28T09:52:49.781Z,21.90
2022-08-28T09:53:49.804Z,21.90
2022-08-28T09:54:49.838Z,21.82
2022-08-28T09:55:49.865Z,21.79
2022-08-28T09:56:49.896Z,21.84
2022-08-28T09:57:49.923Z,21.77
2022-08-28T09:58:49.953Z,21.79
2022-08-28T09:59:49.988Z,21.82
2022-08-28T10:00:50.010Z,21.68
2022-08-28T10:01:50.080Z,21.53
2022-08-28T10:02:50.067Z,21.56
2022-08-28T10:03:50.098Z,21.44
2022-08-28T10:04:50.202Z,21.50
2022-08-28T10:05:50.165Z,21.46
2022-08-28T10:06:50.186Z,21.56
2022-08-28T10:07:50.216Z,21.67
2022-08-28T10:08:50.246Z,21.82
2022-08-28T10:09:50.274Z,21.94
2022-08-28T10:10:50.306Z,21.98
2022-08-28T10:11:50.329Z,21.98
2022-08-28T10:12:50.365Z,22.06
2022-08-28T10:13:50.389Z,21.98
2022-08-28T10:14:50.420Z,22.05
2022-08-28T10:15:50.473Z,21.96
2022-08-28T10:16:50.477Z,21.88
2022-08-28T10:17:50.509Z,21.88
2022-08-28T10:18:50.537Z,21.83
2022-08-28T10:19:50.565Z,21.83
2022-08-28T10:20:50.594Z,21.91
2022-08-28T10:21:50.622Z,21.90
2022-08-28T10:22:50.653Z,22.02
2022-08-28T10:23:50.683Z,22.12
2022-08-28T10:24:50.710Z,22.17
2022-08-28T10:25:50.741Z,22.17
2022-08-28T10:26:50.771Z,22.21
2022-08-28T10:27:50.797Z,22.28
2022-08-28T10:28:50.822Z,22.35
2022-08-28T10:29:50.859Z,22.47
2022-08-28T10:30:50.980Z,22.61
2022-08-28T10:31:50.916Z,22.65
2022-08-28T10:32:50.945Z,22.65
2022-08-28T10:33:50.976Z,22.62
2022-08-28T10:34:51.007Z,22.46
2022-08-28T10:35:51.036Z,22.46
2022-08-28T10:36:51.064Z,22.45
2022-08-28T10:37:51.097Z,22.46
2022-08-28T10:38:51.323Z,22.43
2022-08-28T10:39:51.154Z,22.39
2022-08-28T10:40:51.185Z,22.42
2022-08-28T10:41:51.212Z,22.33
2022-08-28T10:42:51.245Z,22.21
2022-08-28T10:43:51.274Z,22.25
2022-08-28T10:44:51.303Z,22.24
2022-08-28T10:45:51.367Z,22.17
2022-08-28T10:46:51.366Z,22.28
2022-08-28T10:47:51.393Z,22.24
2022-08-28T10:48:51.419Z,22.36
2022-08-28T10:49:51.467Z,22.49
2022-08-28T10:50:51.486Z,22.39
2022-08-28T10:51:51.519Z,22.35
2022-08-28T10:52:51.545Z,22.24
2022-08-28T10:53:51.574Z,22.30
2022-08-28T10:54:51.600Z,22.36
2022-08-28T10:55:51.631Z,22.45
2022-08-28T10:56:56.397Z,22.47
2022-08-28T10:57:51.689Z,22.46
2022-08-28T10:58:51.719Z,22.39
2022-08-28T10:59:51.749Z,22.33
2022-08-28T11:00:51.776Z,22.35
2022-08-28T11:01:51.851Z,22.24
2022-08-28T11:02:51.943Z,22.27
2022-08-28T11:03:51.865Z,22.27
2022-08-28T11:04:55.315Z,22.33
2022-08-28T11:05:53.848Z,22.30
2022-08-28T11:06:51.955Z,22.45
2022-08-28T11:07:51.982Z,22.60
2022-08-28T11:08:52.035Z,22.52
2022-08-28T11:09:52.041Z,22.67
2022-08-28T11:10:52.073Z,22.64
2022-08-28T11:11:52.102Z,22.67
2022-08-28T11:12:52.132Z,22.68
2022-08-28T11:13:52.164Z,22.58
2022-08-28T11:14:52.193Z,22.49
2022-08-28T11:15:52.225Z,22.45
2022-08-28T11:16:52.307Z,22.54
2022-08-28T11:17:52.280Z,22.49
2022-08-28T11:18:52.308Z,22.57
2022-08-28T11:19:52.647Z,22.68
2022-08-28T11:20:52.367Z,22.73
2022-08-28T11:21:52.397Z,22.85
2022-08-28T11:22:52.423Z,23.02
2022-08-28T11:23:52.458Z,23.16
2022-08-28T11:24:52.490Z,23.20
2022-08-28T11:25:52.516Z,23.17
2022-08-28T11:26:52.547Z,23.23
2022-08-28T11:27:52.577Z,23.25
2022-08-28T11:28:52.607Z,23.28
2022-08-28T11:29:52.651Z,23.20
2022-08-28T11:30:52.696Z,23.16
2022-08-28T11:31:52.704Z,23.04
2022-08-28T11:32:52.725Z,23.05
2022-08-28T11:33:52.759Z,23.07
2022-08-28T11:34:52.787Z,23.16
2022-08-28T11:35:52.817Z,23.20
2022-08-28T11:36:52.844Z,23.17
2022-08-28T11:37:52.876Z,23.25
2022-08-28T11:38:52.907Z,23.23
2022-08-28T11:39:53.022Z,23.31
2022-08-28T11:40:52.965Z,23.28
2022-08-28T11:41:52.998Z,23.43
2022-08-28T11:42:53.026Z,23.47
2022-08-28T11:43:53.057Z,23.57
2022-08-28T11:44:53.087Z,23.53
2022-08-28T11:45:53.160Z,23.48
2022-08-28T11:46:53.148Z,23.54
2022-08-28T11:47:53.179Z,23.47
2022-08-28T11:48:53.208Z,23.39
2022-08-28T11:49:53.237Z,23.36
2022-08-28T11:50:53.268Z,23.23
2022-08-28T11:51:53.298Z,23.04
2022-08-28T11:52:53.326Z,23.05
2022-08-28T11:53:53.360Z,22.90
2022-08-28T11:54:53.386Z,22.92
2022-08-28T11:55:53.420Z,22.92
2022-08-28T11:56:53.454Z,22.92
2022-08-28T11:57:53.476Z,22.91
2022-08-28T11:58:53.508Z,22.91
2022-08-28T11:59:53.541Z,22.91
2022-08-28T12:00:53.579Z,22.95
2022-08-28T12:01:53.600Z,23.02
2022-08-28T12:02:53.651Z,23.05
2022-08-28T12:03:53.732Z,23.04
2022-08-28T12:04:53.685Z,23.16
2022-08-28T12:05:53.718Z,23.25
2022-08-28T12:06:53.744Z,23.23
2022-08-28T12:07:53.779Z,23.35
2022-08-28T12:08:53.807Z,23.32
2022-08-28T12:09:53.838Z,23.46
2022-08-28T12:10:53.863Z,23.43
2022-08-28T12:11:53.898Z,23.55
2022-08-28T12:12:53.926Z,23.43
2022-08-28T12:13:53.959Z,23.57
2022-08-28T12:14:53.987Z,23.48
2022-08-28T12:15:54.061Z,23.50
2022-08-28T12:16:54.044Z,23.43
2022-08-28T12:17:54.075Z,23.27
2022-08-28T12:18:54.105Z,23.38
2022-08-28T12:19:55.918Z,23.36
2022-08-28T12:20:54.165Z,23.38
2022-08-28T12:21:54.193Z,23.50
2022-08-28T12:22:54.226Z,23.53
2022-08-28T12:23:57.032Z,23.48
2022-08-28T12:24:54.285Z,23.47
2022-08-28T12:25:54.312Z,23.46
2022-08-28T12:26:54.357Z,23.51
2022-08-28T12:27:54.377Z,23.55
2022-08-28T12:28:54.433Z,23.60
2022-08-28T12:29:54.436Z,23.69
2022-08-28T12:30:54.512Z,23.70
2022-08-28T12:31:54.493Z,23.63
2022-08-28T12:32:54.527Z,23.63
2022-08-28T12:33:54.556Z,23.69
2022-08-28T12:34:54.586Z,23.66
2022-08-28T12:35:54.615Z,23.65
2022-08-28T12:36:54.644Z,23.61
2022-08-28T12:37:54.678Z,23.63
2022-08-28T12:38:54.704Z,23.55
2022-08-28T12:39:54.759Z,23.55
2022-08-28T12:40:54.774Z,23.60
2022-08-28T12:41:54.794Z,23.55
2022-08-28T12:42:55.537Z,23.70
2022-08-28T12:43:54.853Z,23.69
2022-08-28T12:44:54.883Z,23.70
2022-08-28T12:45:54.943Z,23.68
2022-08-28T12:46:54.945Z,23.70
2022-08-28T12:47:54.973Z,23.65
2022-08-28T12:48:55.007Z,23.70
2022-08-28T12:49:55.033Z,23.55
2022-08-28T12:50:55.068Z,23.68
2022-08-28T12:51:55.094Z,23.63
2022-08-28T12:52:55.124Z,23.69
2022-08-28T12:53:55.159Z,23.73
2022-08-28T12:54:55.186Z,23.70
2022-08-28T12:55:55.211Z,23.66
2022-08-28T12:56:55.244Z,23.75
2022-08-28T12:57:55.280Z,23.79
2022-08-28T12:58:55.304Z,23.75
2022-08-28T12:59:55.333Z,23.83
2022-08-28T13:00:55.396Z,23.65
2022-08-28T13:01:55.492Z,23.72
2022-08-28T13:02:55.424Z,23.70
2022-08-28T13:03:55.456Z,23.79
2022-08-28T13:04:55.524Z,23.79
2022-08-28T13:05:55.513Z,23.76
2022-08-28T13:06:55.543Z,23.90
2022-08-28T13:07:55.572Z,23.95
2022-08-28T13:08:55.603Z,23.88
2022-08-28T13:09:55.633Z,24.00
2022-08-28T13:10:55.661Z,23.93
2022-08-28T13:11:55.694Z,23.90
2022-08-28T13:12:58.788Z,23.90
2022-08-28T13:13:55.754Z,23.95
2022-08-28T13:14:55.783Z,23.93
2022-08-28T13:15:55.811Z,23.94
2022-08-28T13:16:55.900Z,23.94
2022-08-28T13:17:55.873Z,23.94